ADDS METAR Data INFO
IDs: Format: Raw Decoded Include TAF

Data at: 0919 UTC 17 Oct 2017

KY63 170915Z AUTO 20005KT 10SM CLR 03/03 A2996 RMK AO2 T00330033
KY63 170855Z AUTO 20004KT 10SM CLR 05/04 A2996 RMK AO2 T00480040
KY63 170835Z AUTO 00000KT 10SM CLR 05/05 A2996 RMK AO2 T00520045
KY63 170814Z AUTO 00000KT 10SM CLR 06/05 A2996 RMK AO2 T00580052
KY63 170755Z AUTO 00000KT 10SM CLR 06/05 A2996 RMK AO2 T00580051
KY63 170735Z AUTO 00000KT 10SM CLR 07/05 A2996 RMK AO2 T00650048
KY63 170714Z AUTO 00000KT 10SM CLR 06/04 A2996 RMK AO2 T00610044
KY63 170654Z AUTO 00000KT 10SM CLR 06/05 A2996 RMK AO2 T00590046
KY63 170635Z AUTO 00000KT 10SM CLR 07/05 A2996 RMK AO2 T00690047
KY63 170614Z AUTO 00000KT 10SM CLR 06/04 A2996 RMK AO2 T00640044
KY63 170554Z AUTO 00000KT 10SM CLR 07/05 A2995 RMK AO2 T00680045 10122 20065 402001011
KY63 170535Z AUTO 00000KT 10SM CLR 07/05 A2995 RMK AO2 T00700045
KY63 170514Z AUTO 24004KT 10SM CLR 07/05 A2995 RMK AO2 T00740046
KY63 170454Z AUTO 00000KT 10SM CLR 09/05 A2995 RMK AO2 T00860048
KY63 170435Z AUTO 00000KT 10SM CLR 08/05 A2995 RMK AO2 T00780046
KY63 170415Z AUTO 24004KT 10SM CLR 08/05 A2995 RMK AO2 T00800045
KY63 170354Z AUTO 24004KT 10SM CLR 09/05 A2995 RMK AO2 T00870047
KY63 170335Z AUTO 25004KT 10SM CLR 08/05 A2994 RMK AO2 T00750047
KY63 170315Z AUTO 26006KT 10SM CLR 08/05 A2994 RMK AO2 T00760047
KY63 170255Z AUTO 26007KT 10SM CLR 09/05 A2993 RMK AO2 T00860051
KY63 170235Z AUTO 26007KT 10SM CLR 08/05 A2993 RMK AO2 T00840050
KY63 170215Z AUTO 26008KT 10SM CLR 09/05 A2993 RMK AO2 T00880050
KY63 170155Z AUTO 26006KT 10SM CLR 09/05 A2993 RMK AO2 T00900047
KY63 170135Z AUTO 26006KT 10SM CLR 10/05 A2993 RMK AO2 T00960046
KY63 170115Z AUTO 24007KT 10SM CLR 10/04 A2993 RMK AO2 T01000044
KY63 170055Z AUTO 25006KT 10SM CLR 11/04 A2993 RMK AO2 T01060044
KY63 170035Z AUTO 24006KT 10SM CLR 11/05 A2993 RMK AO2 T01100046
KY63 170015Z AUTO 26006KT 10SM CLR 12/04 A2993 RMK AO2 T01170044
KY63 162355Z AUTO 24005KT 10SM CLR 12/05 A2993 RMK AO2 T01160047 10200 20116
KY63 162335Z AUTO 26006KT 10SM CLR 14/04 A2992 RMK AO2 T01410042
KY63 162314Z AUTO 26008KT 10SM CLR 17/04 A2992 RMK AO2 T01650042
KY63 162255Z AUTO 26007KT 7SM CLR 17/04 A2992 RMK AO2 T01720043
KY63 162235Z AUTO 26010G15KT 7SM CLR 19/04 A2991 RMK AO2 T01870040
KY63 162214Z AUTO 26009KT 10SM CLR 19/04 A2992 RMK AO2 T01930037
KY63 162155Z AUTO 26012G16KT 10SM CLR 20/04 A2992 RMK AO2 T01990035
KY63 162135Z AUTO 25011G17KT 10SM CLR 20/03 A2993 RMK AO2 T01990034
KY63 162114Z AUTO 25014KT 10SM CLR 20/03 A2994 RMK AO2 T02000033
KY63 162055Z AUTO 26011KT 10SM CLR 20/03 A2995 RMK AO2 T01970034
KY63 162035Z AUTO 25012G20KT 10SM CLR 19/03 A2995 RMK AO2 T01920034
KY63 162014Z AUTO 22012KT 190V260 10SM CLR 20/04 A2996 RMK AO2 T01950035
KY63 161955Z AUTO 25013G19KT 10SM CLR 19/04 A2997 RMK AO2 T01900035
KY63 161935Z AUTO 23014G18KT 10SM CLR 19/03 A2998 RMK AO2 T01860034
KY63 161914Z AUTO 25013G18KT 10SM CLR 19/04 A2999 RMK AO2 T01850036
KY63 161855Z AUTO 24012KT 200V270 10SM CLR 18/03 A3001 RMK AO2 T01770034
KY63 161835Z AUTO 25014G19KT 10SM CLR 18/04 A3003 RMK AO2 T01750040
KY63 161814Z AUTO 22015G19KT 200V260 10SM CLR 17/04 A3004 RMK AO2 T01690037
KY63 161755Z AUTO 22012KT 190V260 10SM CLR 16/03 A3005 RMK AO2 T01610034 10161 21011
KY63 161735Z AUTO 20009KT 170V260 10SM CLR 15/03 A3006 RMK AO2 T01540032
KY63 161714Z AUTO 19012KT 10SM CLR 14/04 A3006 RMK AO2 T01420035
KY63 161655Z AUTO 19012G16KT 10SM CLR 13/03 A3008 RMK AO2 T01340031
KY63 161635Z AUTO 18012KT 10SM CLR 13/03 A3010 RMK AO2 T01250030
KY63 161614Z AUTO 18011G16KT 10SM CLR 12/03 A3011 RMK AO2 T01180027
KY63 161555Z AUTO 19011G16KT 180V240 10SM CLR 11/03 A3011 RMK AO2 T01110027
KY63 161535Z AUTO 19009KT 10SM CLR 10/03 A3012 RMK AO2 T00990034
KY63 161514Z AUTO 18009KT 10SM CLR 08/04 A3013 RMK AO2 T00840036
KY63 161455Z AUTO 17007KT 10SM CLR 07/03 A3013 RMK AO2 T00700029
KY63 161435Z AUTO 18007KT 10SM CLR 06/02 A3014 RMK AO2 T00560023
KY63 161414Z AUTO 18008KT 10SM CLR 04/02 A3015 RMK AO2 T00400016
KY63 161355Z AUTO 17007KT 10SM CLR 03/01 A3015 RMK AO2 T00250009
KY63 161335Z AUTO 17006KT 10SM CLR 01/00 A3015 RMK AO2 T00110000
KY63 161314Z AUTO 16006KT 10SM CLR 00/M01 A3016 RMK AO2 T10041008
KY63 161255Z AUTO 14006KT 10SM CLR 00/M01 A3016 RMK AO2 T10041008
KY63 161235Z AUTO 16006KT 10SM CLR 00/M01 A3016 RMK AO2 T10051010
KY63 161214Z AUTO 17007KT 10SM CLR 00/M01 A3017 RMK AO2 T10021007
KY63 161155Z AUTO 16006KT 10SM CLR M01/M02 A3017 RMK AO2 T10111016 10017 21011
KY63 161135Z AUTO 17006KT 10SM CLR M01/M01 A3018 RMK AO2 T10061010
KY63 161114Z AUTO 18006KT 10SM CLR M01/M01 A3018 RMK AO2 T10061010
KY63 161055Z AUTO 00000KT 10SM CLR 00/M01 A3018 RMK AO2 T10031008
KY63 161035Z AUTO 00000KT 10SM CLR 00/M01 A3018 RMK AO2 T10041008
KY63 161014Z AUTO 00000KT 10SM CLR 00/M01 A3019 RMK AO2 T10041007
KY63 160955Z AUTO 00000KT 10SM CLR 00/M01 A3019 RMK AO2 T10021010
KY63 160935Z AUTO 00000KT 10SM CLR 00/M01 A3018 RMK AO2 T10031010
KY63 160914Z AUTO 00000KT 10SM CLR 00/00 A3019 RMK AO2 T00001002
KY63 160855Z AUTO 00000KT 10SM CLR M01/M01 A3019 RMK AO2 T10081015
KY63 160835Z AUTO 00000KT 10SM CLR 00/M01 A3019 RMK AO2 T10011008
KY63 160814Z AUTO 00000KT 10SM CLR 00/M01 A3020 RMK AO2 T00001006
KY63 160755Z AUTO 26003KT 10SM CLR 01/00 A3020 RMK AO2 T00061001
KY63 160735Z AUTO 25003KT 10SM CLR 02/00 A3020 RMK AO2 T00150001
KY63 160714Z AUTO 24003KT 10SM CLR 02/01 A3021 RMK AO2 T00160005
KY63 160655Z AUTO 24003KT 10SM CLR 02/01 A3020 RMK AO2 T00170005
KY63 160635Z AUTO 26003KT 10SM CLR 01/00 A3020 RMK AO2 T00120002
KY63 160614Z AUTO 25005KT 10SM CLR 00/00 A3020 RMK AO2 T00030000
KY63 160555Z AUTO 00000KT 10SM CLR 00/00 A3019 RMK AO2 T00001003 10066 21001 401101010
KY63 160535Z AUTO 00000KT 10SM CLR 02/01 A3019 RMK AO2 T00160005
KY63 160514Z AUTO 28003KT 10SM CLR 03/01 A3019 RMK AO2 T00260009
KY63 160455Z AUTO 31004KT 10SM CLR 03/01 A3019 RMK AO2 T00280012
KY63 160435Z AUTO 33004KT 10SM CLR 03/01 A3019 RMK AO2 T00310012
KY63 160415Z AUTO 32005KT 10SM CLR 04/01 A3019 RMK AO2 T00380013
KY63 160355Z AUTO 23003KT 10SM CLR 04/01 A3019 RMK AO2 T00350014
KY63 160335Z AUTO 24005KT 10SM CLR 04/02 A3018 RMK AO2 T00360017
KY63 160315Z AUTO 26006KT 10SM CLR 04/02 A3018 RMK AO2 T00350017
KY63 160255Z AUTO 20005KT 10SM CLR 03/02 A3018 RMK AO2 T00330016
KY63 160235Z AUTO 18004KT 10SM CLR 04/02 A3018 RMK AO2 T00400017
KY63 160215Z AUTO 00000KT 10SM SCT080 06/03 A3017 RMK AO2 T00550029
KY63 160155Z AUTO 19004KT 10SM OVC080 05/03 A3017 RMK AO2 T00460030
KY63 160135Z AUTO 19005KT 10SM OVC080 05/03 A3017 RMK AO2 T00450029
KY63 160114Z AUTO 14004KT 10SM BKN080 05/03 A3017 RMK AO2 T00480029
KY63 160055Z AUTO 25005KT 10SM SCT090 04/03 A3017 RMK AO2 T00400025
KY63 160035Z AUTO 26004KT 10SM BKN090 04/02 A3017 RMK AO2 T00440024
KY63 160014Z AUTO 27004KT 10SM OVC090 06/03 A3016 RMK AO2 T00580026
KY63 152355Z AUTO 27004KT 10SM BKN090 07/03 A3016 RMK AO2 T00670025 10110 20067
KY63 152334Z AUTO 24004KT 10SM SCT090 08/02 A3016 RMK AO2 T00760024
KY63 152315Z AUTO 24004KT 10SM SCT090 08/03 A3016 RMK AO2 T00820025
KY63 152255Z AUTO 23004KT 10SM SCT070 SCT100 09/02 A3016 RMK AO2 T00880022
KY63 152234Z AUTO 31005KT 10SM OVC100 10/03 A3016 RMK AO2 T01000025
KY63 152215Z AUTO 33008KT 10SM SCT080 BKN100 10/02 A3016 RMK AO2 T00990021
KY63 152155Z AUTO 30008G15KT 210V330 10SM BKN080 BKN100 10/02 A3016 RMK AO2 T01010019
KY63 152135Z AUTO 30008KT 210V330 10SM SCT080 BKN095 10/02 A3016 RMK AO2 T00970023